sensor_id;sensor_type;location;lat;lon;timestamp;temperature;humidity
52543;DHT22;38449;52.696;6.186;2023-10-31T00:02:09;10.80;99.90
52543;DHT22;38449;52.696;6.186;2023-10-31T00:04:35;10.80;99.90
52543;DHT22;38449;52.696;6.186;2023-10-31T00:07:01;10.80;99.90
52543;DHT22;38449;52.696;6.186;2023-10-31T00:09:28;10.70;99.90
52543;DHT22;38449;52.696;6.186;2023-10-31T00:11:54;10.70;99.90
52543;DHT22;38449;52.696;6.186;2023-10-31T00:14:20;10.90;99.90
52543;DHT22;38449;52.696;6.186;2023-10-31T00:16:46;10.90;99.90
52543;DHT22;38449;52.696;6.186;2023-10-31T00:19:14;10.70;99.90
52543;DHT22;38449;52.696;6.186;2023-10-31T00:21:41;10.80;99.90
52543;DHT22;38449;52.696;6.186;2023-10-31T00:24:07;10.80;99.90
52543;DHT22;38449;52.696;6.186;2023-10-31T00:26:33;10.50;99.90
52543;DHT22;38449;52.696;6.186;2023-10-31T00:29:00;10.70;99.90
52543;DHT22;38449;52.696;6.186;2023-10-31T00:31:26;10.40;99.90
52543;DHT22;38449;52.696;6.186;2023-10-31T00:33:52;10.40;99.90
52543;DHT22;38449;52.696;6.186;2023-10-31T00:36:18;10.30;99.90
52543;DHT22;38449;52.696;6.186;2023-10-31T00:38:44;10.50;99.90
52543;DHT22;38449;52.696;6.186;2023-10-31T00:41:11;10.30;99.90
52543;DHT22;38449;52.696;6.186;2023-10-31T00:43:37;10.20;99.90
52543;DHT22;38449;52.696;6.186;2023-10-31T00:46:03;10.40;99.90
52543;DHT22;38449;52.696;6.186;2023-10-31T00:48:30;10.10;99.90
52543;DHT22;38449;52.696;6.186;2023-10-31T00:51:03;10.30;99.90
52543;DHT22;38449;52.696;6.186;2023-10-31T00:53:31;10.30;99.90
52543;DHT22;38449;52.696;6.186;2023-10-31T00:55:58;10.30;99.90
52543;DHT22;38449;52.696;6.186;2023-10-31T00:58:24;10.10;99.90
52543;DHT22;38449;52.696;6.186;2023-10-31T01:00:50;10.30;99.90
52543;DHT22;38449;52.696;6.186;2023-10-31T01:03:16;10.30;99.90
52543;DHT22;38449;52.696;6.186;2023-10-31T01:05:42;10.20;99.90
52543;DHT22;38449;52.696;6.186;2023-10-31T01:08:09;10.20;99.90
52543;DHT22;38449;52.696;6.186;2023-10-31T01:10:35;10.20;99.90
52543;DHT22;38449;52.696;6.186;2023-10-31T01:13:01;10.00;99.90
52543;DHT22;38449;52.696;6.186;2023-10-31T01:15:27;10.20;99.90
52543;DHT22;38449;52.696;6.186;2023-10-31T01:17:54;10.20;99.90
52543;DHT22;38449;52.696;6.186;2023-10-31T01:20:20;10.20;99.90
52543;DHT22;38449;52.696;6.186;2023-10-31T01:22:46;9.90;99.90
52543;DHT22;38449;52.696;6.186;2023-10-31T01:25:12;10.20;99.90
52543;DHT22;38449;52.696;6.186;2023-10-31T01:27:39;10.00;99.90
52543;DHT22;38449;52.696;6.186;2023-10-31T01:30:05;9.90;99.90
52543;DHT22;38449;52.696;6.186;2023-10-31T01:32:32;10.10;99.90
52543;DHT22;38449;52.696;6.186;2023-10-31T01:34:58;10.10;99.90
52543;DHT22;38449;52.696;6.186;2023-10-31T01:37:24;10.10;99.90
52543;DHT22;38449;52.696;6.186;2023-10-31T01:39:50;9.80;99.90
52543;DHT22;38449;52.696;6.186;2023-10-31T01:42:17;10.10;99.90
52543;DHT22;38449;52.696;6.186;2023-10-31T01:44:43;10.10;99.90
52543;DHT22;38449;52.696;6.186;2023-10-31T01:47:09;9.90;99.90
52543;DHT22;38449;52.696;6.186;2023-10-31T01:49:36;10.10;99.90
52543;DHT22;38449;52.696;6.186;2023-10-31T01:52:06;9.90;99.90
52543;DHT22;38449;52.696;6.186;2023-10-31T01:54:33;10.00;99.90
52543;DHT22;38449;52.696;6.186;2023-10-31T01:57:01;10.10;99.90
52543;DHT22;38449;52.696;6.186;2023-10-31T01:59:27;10.00;99.90
52543;DHT22;38449;52.696;6.186;2023-10-31T02:01:57;10.10;99.90
52543;DHT22;38449;52.696;6.186;2023-10-31T02:04:24;10.00;99.90
52543;DHT22;38449;52.696;6.186;2023-10-31T02:06:50;9.80;99.90
52543;DHT22;38449;52.696;6.186;2023-10-31T02:09:16;10.00;99.90
52543;DHT22;38449;52.696;6.186;2023-10-31T02:11:42;9.80;99.90
52543;DHT22;38449;52.696;6.186;2023-10-31T02:14:09;10.20;99.90
52543;DHT22;38449;52.696;6.186;2023-10-31T02:16:35;9.90;99.90
52543;DHT22;38449;52.696;6.186;2023-10-31T02:19:02;10.20;99.90
52543;DHT22;38449;52.696;6.186;2023-10-31T02:21:30;10.10;99.90
52543;DHT22;38449;52.696;6.186;2023-10-31T02:23:58;10.20;99.90
52543;DHT22;38449;52.696;6.186;2023-10-31T02:26:32;10.20;99.90
52543;DHT22;38449;52.696;6.186;2023-10-31T02:28:59;10.00;99.90
52543;DHT22;38449;52.696;6.186;2023-10-31T02:31:26;10.30;99.90
52543;DHT22;38449;52.696;6.186;2023-10-31T02:33:53;10.10;99.90
52543;DHT22;38449;52.696;6.186;2023-10-31T02:36:19;10.40;99.90
52543;DHT22;38449;52.696;6.186;2023-10-31T02:38:46;10.10;99.90
52543;DHT22;38449;52.696;6.186;2023-10-31T02:41:13;10.20;99.90
52543;DHT22;38449;52.696;6.186;2023-10-31T02:43:40;10.30;99.90
52543;DHT22;38449;52.696;6.186;2023-10-31T02:46:06;10.10;99.90
52543;DHT22;38449;52.696;6.186;2023-10-31T02:48:32;10.40;99.90
52543;DHT22;38449;52.696;6.186;2023-10-31T02:51:05;10.30;99.90
52543;DHT22;38449;52.696;6.186;2023-10-31T02:53:31;10.50;99.90
52543;DHT22;38449;52.696;6.186;2023-10-31T02:55:57;10.50;99.90
52543;DHT22;38449;52.696;6.186;2023-10-31T02:58:23;10.30;99.90
52543;DHT22;38449;52.696;6.186;2023-10-31T03:00:50;10.20;99.90
52543;DHT22;38449;52.696;6.186;2023-10-31T03:03:16;10.40;99.90
52543;DHT22;38449;52.696;6.186;2023-10-31T03:05:42;10.40;99.90
52543;DHT22;38449;52.696;6.186;2023-10-31T03:08:08;10.20;99.90
52543;DHT22;38449;52.696;6.186;2023-10-31T03:10:38;10.20;99.90
52543;DHT22;38449;52.696;6.186;2023-10-31T03:13:04;10.30;99.90
52543;DHT22;38449;52.696;6.186;2023-10-31T03:15:30;10.20;99.90
52543;DHT22;38449;52.696;6.186;2023-10-31T03:17:57;10.50;99.90
52543;DHT22;38449;52.696;6.186;2023-10-31T03:20:23;10.40;99.90
52543;DHT22;38449;52.696;6.186;2023-10-31T03:22:49;10.30;99.90
52543;DHT22;38449;52.696;6.186;2023-10-31T03:25:16;10.30;99.90
52543;DHT22;38449;52.696;6.186;2023-10-31T03:27:42;10.40;99.90
52543;DHT22;38449;52.696;6.186;2023-10-31T03:30:09;10.30;99.90
52543;DHT22;38449;52.696;6.186;2023-10-31T03:32:35;10.20;99.90
52543;DHT22;38449;52.696;6.186;2023-10-31T03:35:01;10.20;99.90
52543;DHT22;38449;52.696;6.186;2023-10-31T03:37:28;10.30;99.90
52543;DHT22;38449;52.696;6.186;2023-10-31T03:39:54;10.20;99.90
52543;DHT22;38449;52.696;6.186;2023-10-31T03:42:20;10.20;99.90
52543;DHT22;38449;52.696;6.186;2023-10-31T03:44:46;10.40;99.90
52543;DHT22;38449;52.696;6.186;2023-10-31T03:47:13;10.40;99.90
52543;DHT22;38449;52.696;6.186;2023-10-31T03:49:40;10.20;99.90
52543;DHT22;38449;52.696;6.186;2023-10-31T03:52:06;10.20;99.90
52543;DHT22;38449;52.696;6.186;2023-10-31T03:54:33;10.40;99.90
52543;DHT22;38449;52.696;6.186;2023-10-31T03:56:59;10.20;99.90
52543;DHT22;38449;52.696;6.186;2023-10-31T03:59:25;10.40;99.90
52543;DHT22;38449;52.696;6.186;2023-10-31T04:01:52;10.20;99.90
52543;DHT22;38449;52.696;6.186;2023-10-31T04:04:18;10.30;99.90
52543;DHT22;38449;52.696;6.186;2023-10-31T04:06:44;10.40;99.90
52543;DHT22;38449;52.696;6.186;2023-10-31T04:09:10;10.40;99.90
52543;DHT22;38449;52.696;6.186;2023-10-31T04:11:37;10.20;99.90
52543;DHT22;38449;52.696;6.186;2023-10-31T04:14:04;10.20;99.90
52543;DHT22;38449;52.696;6.186;2023-10-31T04:16:32;10.20;99.90
52543;DHT22;38449;52.696;6.186;2023-10-31T04:18:58;10.40;99.90
52543;DHT22;38449;52.696;6.186;2023-10-31T04:21:24;10.20;99.90
52543;DHT22;38449;52.696;6.186;2023-10-31T04:23:51;10.30;99.90
52543;DHT22;38449;52.696;6.186;2023-10-31T04:26:17;10.20;99.90
52543;DHT22;38449;52.696;6.186;2023-10-31T04:28:43;10.40;99.90
52543;DHT22;38449;52.696;6.186;2023-10-31T04:31:09;10.30;99.90
52543;DHT22;38449;52.696;6.186;2023-10-31T04:33:36;10.30;99.90
52543;DHT22;38449;52.696;6.186;2023-10-31T04:36:02;10.40;99.90
52543;DHT22;38449;52.696;6.186;2023-10-31T04:38:29;10.30;99.90
52543;DHT22;38449;52.696;6.186;2023-10-31T04:40:56;10.20;99.90
52543;DHT22;38449;52.696;6.186;2023-10-31T04:43:22;10.40;99.90
52543;DHT22;38449;52.696;6.186;2023-10-31T04:45:48;10.40;99.90
52543;DHT22;38449;52.696;6.186;2023-10-31T04:48:14;10.40;99.90
52543;DHT22;38449;52.696;6.186;2023-10-31T04:50:41;10.30;99.90
52543;DHT22;38449;52.696;6.186;2023-10-31T04:53:07;10.20;99.90
52543;DHT22;38449;52.696;6.186;2023-10-31T04:55:33;10.40;99.90
52543;DHT22;38449;52.696;6.186;2023-10-31T04:58:00;10.40;99.90
52543;DHT22;38449;52.696;6.186;2023-10-31T05:00:26;10.40;99.90
52543;DHT22;38449;52.696;6.186;2023-10-31T05:02:52;10.20;99.90
52543;DHT22;38449;52.696;6.186;2023-10-31T05:05:18;10.40;99.90
52543;DHT22;38449;52.696;6.186;2023-10-31T05:07:45;10.20;99.90
52543;DHT22;38449;52.696;6.186;2023-10-31T05:10:11;10.20;99.90
52543;DHT22;38449;52.696;6.186;2023-10-31T05:12:38;10.20;99.90
52543;DHT22;38449;52.696;6.186;2023-10-31T05:15:04;10.40;99.90
52543;DHT22;38449;52.696;6.186;2023-10-31T05:17:31;10.40;99.90
52543;DHT22;38449;52.696;6.186;2023-10-31T05:19:57;10.20;99.90
52543;DHT22;38449;52.696;6.186;2023-10-31T05:22:23;10.40;99.90
52543;DHT22;38449;52.696;6.186;2023-10-31T05:24:50;10.20;99.90
52543;DHT22;38449;52.696;6.186;2023-10-31T05:27:16;10.20;99.90
52543;DHT22;38449;52.696;6.186;2023-10-31T05:29:42;10.20;99.90
52543;DHT22;38449;52.696;6.186;2023-10-31T05:32:08;10.20;99.90
52543;DHT22;38449;52.696;6.186;2023-10-31T05:34:35;10.40;99.90
52543;DHT22;38449;52.696;6.186;2023-10-31T05:37:01;10.40;99.90
52543;DHT22;38449;52.696;6.186;2023-10-31T05:39:27;10.30;99.90
52543;DHT22;38449;52.696;6.186;2023-10-31T05:41:53;10.40;99.90
52543;DHT22;38449;52.696;6.186;2023-10-31T05:44:19;10.20;99.90
52543;DHT22;38449;52.696;6.186;2023-10-31T05:46:46;10.20;99.90
52543;DHT22;38449;52.696;6.186;2023-10-31T05:49:12;10.30;99.90
52543;DHT22;38449;52.696;6.186;2023-10-31T05:51:38;10.10;99.90
52543;DHT22;38449;52.696;6.186;2023-10-31T05:54:07;10.30;99.90
52543;DHT22;38449;52.696;6.186;2023-10-31T05:56:33;10.30;99.90
52543;DHT22;38449;52.696;6.186;2023-10-31T05:59:00;10.10;99.90
52543;DHT22;38449;52.696;6.186;2023-10-31T06:01:26;10.30;99.90
52543;DHT22;38449;52.696;6.186;2023-10-31T06:03:52;10.20;99.90
52543;DHT22;38449;52.696;6.186;2023-10-31T06:06:19;10.10;99.90
52543;DHT22;38449;52.696;6.186;2023-10-31T06:08:45;10.30;99.90
52543;DHT22;38449;52.696;6.186;2023-10-31T06:11:12;10.20;99.90
52543;DHT22;38449;52.696;6.186;2023-10-31T06:13:38;10.30;99.90
52543;DHT22;38449;52.696;6.186;2023-10-31T06:16:04;10.30;99.90
52543;DHT22;38449;52.696;6.186;2023-10-31T06:18:31;10.10;99.90
52543;DHT22;38449;52.696;6.186;2023-10-31T06:20:57;10.30;99.90
52543;DHT22;38449;52.696;6.186;2023-10-31T06:23:23;10.30;99.90
52543;DHT22;38449;52.696;6.186;2023-10-31T06:25:49;10.30;99.90
52543;DHT22;38449;52.696;6.186;2023-10-31T06:28:16;10.20;99.90
52543;DHT22;38449;52.696;6.186;2023-10-31T06:30:42;10.20;99.90
52543;DHT22;38449;52.696;6.186;2023-10-31T06:33:08;10.40;99.90
52543;DHT22;38449;52.696;6.186;2023-10-31T06:35:36;10.20;99.90
52543;DHT22;38449;52.696;6.186;2023-10-31T06:38:02;10.20;99.90
52543;DHT22;38449;52.696;6.186;2023-10-31T06:40:29;10.40;99.90
52543;DHT22;38449;52.696;6.186;2023-10-31T06:42:55;10.50;99.90
52543;DHT22;38449;52.696;6.186;2023-10-31T06:45:21;10.40;99.90
52543;DHT22;38449;52.696;6.186;2023-10-31T06:47:47;10.20;99.90
52543;DHT22;38449;52.696;6.186;2023-10-31T06:50:15;10.30;99.90
52543;DHT22;38449;52.696;6.186;2023-10-31T06:52:41;10.30;99.90
52543;DHT22;38449;52.696;6.186;2023-10-31T06:55:08;10.40;99.90
52543;DHT22;38449;52.696;6.186;2023-10-31T06:57:34;10.40;99.90
52543;DHT22;38449;52.696;6.186;2023-10-31T07:00:00;10.30;99.90
52543;DHT22;38449;52.696;6.186;2023-10-31T07:02:27;10.60;99.90
52543;DHT22;38449;52.696;6.186;2023-10-31T07:04:53;10.40;99.90
52543;DHT22;38449;52.696;6.186;2023-10-31T07:07:19;10.30;99.90
52543;DHT22;38449;52.696;6.186;2023-10-31T07:09:46;10.30;99.90
52543;DHT22;38449;52.696;6.186;2023-10-31T07:12:12;10.50;99.90
52543;DHT22;38449;52.696;6.186;2023-10-31T07:14:38;10.60;99.90
52543;DHT22;38449;52.696;6.186;2023-10-31T07:17:04;10.50;99.90
52543;DHT22;38449;52.696;6.186;2023-10-31T07:19:31;10.50;99.90
52543;DHT22;38449;52.696;6.186;2023-10-31T07:21:57;10.40;99.90
52543;DHT22;38449;52.696;6.186;2023-10-31T07:24:23;10.40;99.90
52543;DHT22;38449;52.696;6.186;2023-10-31T07:26:50;10.60;99.90
52543;DHT22;38449;52.696;6.186;2023-10-31T07:29:16;10.40;99.90
52543;DHT22;38449;52.696;6.186;2023-10-31T07:31:43;10.50;99.90
52543;DHT22;38449;52.696;6.186;2023-10-31T07:34:09;10.50;99.90
52543;DHT22;38449;52.696;6.186;2023-10-31T07:36:37;10.50;99.90
52543;DHT22;38449;52.696;6.186;2023-10-31T07:39:05;10.80;99.90
52543;DHT22;38449;52.696;6.186;2023-10-31T07:41:31;10.70;99.90
52543;DHT22;38449;52.696;6.186;2023-10-31T07:43:57;10.60;99.90
52543;DHT22;38449;52.696;6.186;2023-10-31T07:46:24;10.50;99.90
52543;DHT22;38449;52.696;6.186;2023-10-31T07:48:50;10.80;99.90
52543;DHT22;38449;52.696;6.186;2023-10-31T07:51:16;10.60;99.90
52543;DHT22;38449;52.696;6.186;2023-10-31T07:53:43;10.70;99.90
52543;DHT22;38449;52.696;6.186;2023-10-31T07:56:24;10.80;99.90
52543;DHT22;38449;52.696;6.186;2023-10-31T07:58:54;10.90;99.90
52543;DHT22;38449;52.696;6.186;2023-10-31T08:01:33;11.10;99.90
52543;DHT22;38449;52.696;6.186;2023-10-31T08:04:00;11.20;99.90
52543;DHT22;38449;52.696;6.186;2023-10-31T08:06:26;11.00;99.90
52543;DHT22;38449;52.696;6.186;2023-10-31T08:08:59;11.30;99.90
52543;DHT22;38449;52.696;6.186;2023-10-31T08:11:25;11.20;99.90
52543;DHT22;38449;52.696;6.186;2023-10-31T08:13:53;11.40;99.90
52543;DHT22;38449;52.696;6.186;2023-10-31T08:16:19;11.20;99.90
52543;DHT22;38449;52.696;6.186;2023-10-31T08:18:46;11.30;99.90
52543;DHT22;38449;52.696;6.186;2023-10-31T08:21:13;11.50;99.90
52543;DHT22;38449;52.696;6.186;2023-10-31T08:23:39;11.30;99.90
52543;DHT22;38449;52.696;6.186;2023-10-31T08:26:05;11.40;99.90
52543;DHT22;38449;52.696;6.186;2023-10-31T08:28:31;11.60;99.90
52543;DHT22;38449;52.696;6.186;2023-10-31T08:30:58;11.60;99.90
52543;DHT22;38449;52.696;6.186;2023-10-31T08:33:24;11.70;99.90
52543;DHT22;38449;52.696;6.186;2023-10-31T08:35:50;11.60;99.90
52543;DHT22;38449;52.696;6.186;2023-10-31T08:38:17;11.50;99.90
52543;DHT22;38449;52.696;6.186;2023-10-31T08:40:43;11.50;99.90
52543;DHT22;38449;52.696;6.186;2023-10-31T08:43:10;11.50;99.90
52543;DHT22;38449;52.696;6.186;2023-10-31T08:45:36;11.70;99.90
52543;DHT22;38449;52.696;6.186;2023-10-31T08:48:03;11.60;99.90
52543;DHT22;38449;52.696;6.186;2023-10-31T08:50:29;11.70;99.90
52543;DHT22;38449;52.696;6.186;2023-10-31T08:52:56;11.70;99.90
52543;DHT22;38449;52.696;6.186;2023-10-31T08:55:22;11.70;99.90
52543;DHT22;38449;52.696;6.186;2023-10-31T08:57:48;11.70;99.90
52543;DHT22;38449;52.696;6.186;2023-10-31T09:00:15;11.90;99.90
52543;DHT22;38449;52.696;6.186;2023-10-31T09:02:41;11.80;99.90
52543;DHT22;38449;52.696;6.186;2023-10-31T09:05:09;12.00;99.90
52543;DHT22;38449;52.696;6.186;2023-10-31T09:07:35;11.90;99.90
52543;DHT22;38449;52.696;6.186;2023-10-31T09:10:01;12.00;99.90
52543;DHT22;38449;52.696;6.186;2023-10-31T09:12:27;12.10;99.90
52543;DHT22;38449;52.696;6.186;2023-10-31T09:14:54;12.10;99.90
52543;DHT22;38449;52.696;6.186;2023-10-31T09:17:20;12.10;99.90
52543;DHT22;38449;52.696;6.186;2023-10-31T09:19:46;12.20;99.90
52543;DHT22;38449;52.696;6.186;2023-10-31T09:22:13;12.30;99.90
52543;DHT22;38449;52.696;6.186;2023-10-31T09:24:39;12.30;99.90
52543;DHT22;38449;52.696;6.186;2023-10-31T09:27:06;12.30;99.90
52543;DHT22;38449;52.696;6.186;2023-10-31T09:29:32;12.30;99.90
52543;DHT22;38449;52.696;6.186;2023-10-31T09:31:58;12.30;99.90
52543;DHT22;38449;52.696;6.186;2023-10-31T09:34:25;12.40;99.90
52543;DHT22;38449;52.696;6.186;2023-10-31T09:36:51;12.40;99.90
52543;DHT22;38449;52.696;6.186;2023-10-31T09:39:18;12.50;99.90
52543;DHT22;38449;52.696;6.186;2023-10-31T09:41:44;12.50;99.90
52543;DHT22;38449;52.696;6.186;2023-10-31T09:44:10;12.50;99.90
52543;DHT22;38449;52.696;6.186;2023-10-31T09:46:37;12.60;99.90
52543;DHT22;38449;52.696;6.186;2023-10-31T09:49:04;12.60;99.90
52543;DHT22;38449;52.696;6.186;2023-10-31T09:51:30;12.70;99.90
52543;DHT22;38449;52.696;6.186;2023-10-31T09:53:57;12.60;99.90
52543;DHT22;38449;52.696;6.186;2023-10-31T09:56:25;12.70;99.90
52543;DHT22;38449;52.696;6.186;2023-10-31T09:58:52;12.70;99.90
52543;DHT22;38449;52.696;6.186;2023-10-31T10:01:19;12.80;99.90
52543;DHT22;38449;52.696;6.186;2023-10-31T10:03:45;12.80;99.90
52543;DHT22;38449;52.696;6.186;2023-10-31T10:06:12;12.90;99.90
52543;DHT22;38449;52.696;6.186;2023-10-31T10:08:39;12.90;99.90
52543;DHT22;38449;52.696;6.186;2023-10-31T10:11:05;13.00;99.90
52543;DHT22;38449;52.696;6.186;2023-10-31T10:13:32;13.00;99.90
52543;DHT22;38449;52.696;6.186;2023-10-31T10:15:59;13.00;99.90
52543;DHT22;38449;52.696;6.186;2023-10-31T10:18:27;13.10;99.90
52543;DHT22;38449;52.696;6.186;2023-10-31T10:21:03;13.30;99.90
52543;DHT22;38449;52.696;6.186;2023-10-31T10:23:30;13.30;99.90
52543;DHT22;38449;52.696;6.186;2023-10-31T10:25:58;13.40;99.90
52543;DHT22;38449;52.696;6.186;2023-10-31T10:28:25;13.50;99.90
52543;DHT22;38449;52.696;6.186;2023-10-31T10:30:52;13.50;99.90
52543;DHT22;38449;52.696;6.186;2023-10-31T10:33:20;13.50;99.90
52543;DHT22;38449;52.696;6.186;2023-10-31T10:35:47;13.60;99.90
52543;DHT22;38449;52.696;6.186;2023-10-31T10:38:18;13.60;99.90
52543;DHT22;38449;52.696;6.186;2023-10-31T10:40:48;13.70;99.90
52543;DHT22;38449;52.696;6.186;2023-10-31T10:43:23;13.70;99.90
52543;DHT22;38449;52.696;6.186;2023-10-31T10:45:55;13.80;99.90
52543;DHT22;38449;52.696;6.186;2023-10-31T10:48:25;13.90;99.90
52543;DHT22;38449;52.696;6.186;2023-10-31T10:50:59;13.80;99.90
52543;DHT22;38449;52.696;6.186;2023-10-31T10:53:29;13.80;99.90
52543;DHT22;38449;52.696;6.186;2023-10-31T10:56:00;13.70;99.90
52543;DHT22;38449;52.696;6.186;2023-10-31T10:58:49;13.70;99.90
52543;DHT22;38449;52.696;6.186;2023-10-31T11:01:16;13.50;99.90
52543;DHT22;38449;52.696;6.186;2023-10-31T11:03:45;13.40;99.90
52543;DHT22;38449;52.696;6.186;2023-10-31T11:06:12;13.30;99.90
52543;DHT22;38449;52.696;6.186;2023-10-31T11:08:40;13.20;99.90
52543;DHT22;38449;52.696;6.186;2023-10-31T11:11:07;13.10;99.90
52543;DHT22;38449;52.696;6.186;2023-10-31T11:13:34;13.00;99.90
52543;DHT22;38449;52.696;6.186;2023-10-31T11:16:06;12.90;99.90
52543;DHT22;38449;52.696;6.186;2023-10-31T11:18:35;12.90;99.90
52543;DHT22;38449;52.696;6.186;2023-10-31T11:21:02;12.80;99.90
52543;DHT22;38449;52.696;6.186;2023-10-31T11:23:28;12.80;99.90
52543;DHT22;38449;52.696;6.186;2023-10-31T11:25:55;12.70;99.90
52543;DHT22;38449;52.696;6.186;2023-10-31T11:28:21;12.70;99.90
52543;DHT22;38449;52.696;6.186;2023-10-31T11:30:49;12.70;99.90
52543;DHT22;38449;52.696;6.186;2023-10-31T11:33:18;12.80;99.90
52543;DHT22;38449;52.696;6.186;2023-10-31T11:35:50;12.80;99.90
52543;DHT22;38449;52.696;6.186;2023-10-31T11:38:16;12.70;99.90
52543;DHT22;38449;52.696;6.186;2023-10-31T11:43:20;12.70;99.90
52543;DHT22;38449;52.696;6.186;2023-10-31T11:45:48;12.70;99.90
52543;DHT22;38449;52.696;6.186;2023-10-31T11:48:15;12.70;99.90
52543;DHT22;38449;52.696;6.186;2023-10-31T11:50:41;12.70;99.90
52543;DHT22;38449;52.696;6.186;2023-10-31T11:53:12;12.60;99.90
52543;DHT22;38449;52.696;6.186;2023-10-31T11:55:41;12.60;99.90
52543;DHT22;38449;52.696;6.186;2023-10-31T11:58:19;12.70;99.90
52543;DHT22;38449;52.696;6.186;2023-10-31T12:00:48;12.70;99.90
52543;DHT22;38449;52.696;6.186;2023-10-31T12:03:17;12.80;99.90
52543;DHT22;38449;52.696;6.186;2023-10-31T12:05:54;12.80;99.90
52543;DHT22;38449;52.696;6.186;2023-10-31T12:08:32;12.90;99.90
52543;DHT22;38449;52.696;6.186;2023-10-31T12:11:19;12.90;99.90
52543;DHT22;38449;52.696;6.186;2023-10-31T12:14:00;13.00;99.90
52543;DHT22;38449;52.696;6.186;2023-10-31T12:16:32;13.10;99.90
52543;DHT22;38449;52.696;6.186;2023-10-31T12:19:00;13.20;99.90
52543;DHT22;38449;52.696;6.186;2023-10-31T12:21:44;13.20;99.90
52543;DHT22;38449;52.696;6.186;2023-10-31T12:24:17;13.20;99.90
52543;DHT22;38449;52.696;6.186;2023-10-31T12:26:44;13.20;99.90
52543;DHT22;38449;52.696;6.186;2023-10-31T12:29:17;13.10;99.90
52543;DHT22;38449;52.696;6.186;2023-10-31T12:31:47;13.00;99.90
52543;DHT22;38449;52.696;6.186;2023-10-31T12:34:14;12.90;99.90
52543;DHT22;38449;52.696;6.186;2023-10-31T12:36:41;12.90;99.90
52543;DHT22;38449;52.696;6.186;2023-10-31T12:39:10;12.80;99.90
52543;DHT22;38449;52.696;6.186;2023-10-31T12:41:38;12.70;99.90
52543;DHT22;38449;52.696;6.186;2023-10-31T12:44:06;12.70;99.90
52543;DHT22;38449;52.696;6.186;2023-10-31T12:46:34;12.60;99.90
52543;DHT22;38449;52.696;6.186;2023-10-31T12:49:01;12.60;99.90
52543;DHT22;38449;52.696;6.186;2023-10-31T12:51:27;12.60;99.90
52543;DHT22;38449;52.696;6.186;2023-10-31T12:53:54;12.60;99.90
52543;DHT22;38449;52.696;6.186;2023-10-31T12:56:41;12.60;99.90
52543;DHT22;38449;52.696;6.186;2023-10-31T12:59:09;12.60;99.90
52543;DHT22;38449;52.696;6.186;2023-10-31T13:01:36;12.60;99.90
52543;DHT22;38449;52.696;6.186;2023-10-31T13:04:03;12.60;99.90
52543;DHT22;38449;52.696;6.186;2023-10-31T13:06:30;12.70;99.90
52543;DHT22;38449;52.696;6.186;2023-10-31T13:08:56;12.70;99.90
52543;DHT22;38449;52.696;6.186;2023-10-31T13:11:23;12.80;99.90
52543;DHT22;38449;52.696;6.186;2023-10-31T13:13:52;12.80;99.90
52543;DHT22;38449;52.696;6.186;2023-10-31T13:16:19;12.80;99.90
52543;DHT22;38449;52.696;6.186;2023-10-31T13:18:46;12.80;99.90
52543;DHT22;38449;52.696;6.186;2023-10-31T13:21:12;12.90;99.90
52543;DHT22;38449;52.696;6.186;2023-10-31T13:23:41;12.90;99.90
52543;DHT22;38449;52.696;6.186;2023-10-31T13:26:11;12.90;99.90
52543;DHT22;38449;52.696;6.186;2023-10-31T13:28:38;13.00;99.90
52543;DHT22;38449;52.696;6.186;2023-10-31T13:31:05;13.10;99.90
52543;DHT22;38449;52.696;6.186;2023-10-31T13:33:33;13.10;99.90
52543;DHT22;38449;52.696;6.186;2023-10-31T13:35:59;13.00;99.90
52543;DHT22;38449;52.696;6.186;2023-10-31T13:38:26;12.90;99.90
52543;DHT22;38449;52.696;6.186;2023-10-31T13:40:52;12.90;99.90
52543;DHT22;38449;52.696;6.186;2023-10-31T13:43:18;13.00;99.90
52543;DHT22;38449;52.696;6.186;2023-10-31T13:45:45;13.00;99.90
52543;DHT22;38449;52.696;6.186;2023-10-31T13:48:11;13.20;99.90
52543;DHT22;38449;52.696;6.186;2023-10-31T13:50:39;13.20;99.90
52543;DHT22;38449;52.696;6.186;2023-10-31T13:53:05;13.40;99.90
52543;DHT22;38449;52.696;6.186;2023-10-31T13:55:33;13.40;99.90
52543;DHT22;38449;52.696;6.186;2023-10-31T13:57:59;13.50;99.90
52543;DHT22;38449;52.696;6.186;2023-10-31T14:00:29;13.40;99.90
52543;DHT22;38449;52.696;6.186;2023-10-31T14:02:55;13.30;99.90
52543;DHT22;38449;52.696;6.186;2023-10-31T14:05:22;13.30;99.90
52543;DHT22;38449;52.696;6.186;2023-10-31T14:07:50;13.30;99.90
52543;DHT22;38449;52.696;6.186;2023-10-31T14:10:17;13.30;99.90
52543;DHT22;38449;52.696;6.186;2023-10-31T14:12:48;13.20;99.90
52543;DHT22;38449;52.696;6.186;2023-10-31T14:15:14;13.20;99.90
52543;DHT22;38449;52.696;6.186;2023-10-31T14:17:41;13.10;99.90
52543;DHT22;38449;52.696;6.186;2023-10-31T14:20:07;13.10;99.90
52543;DHT22;38449;52.696;6.186;2023-10-31T14:22:34;13.00;99.90
52543;DHT22;38449;52.696;6.186;2023-10-31T14:25:00;13.00;99.90
52543;DHT22;38449;52.696;6.186;2023-10-31T14:27:30;12.90;99.90
52543;DHT22;38449;52.696;6.186;2023-10-31T14:29:57;12.90;99.90
52543;DHT22;38449;52.696;6.186;2023-10-31T14:32:23;13.00;99.90
52543;DHT22;38449;52.696;6.186;2023-10-31T14:34:49;13.00;99.90
52543;DHT22;38449;52.696;6.186;2023-10-31T14:37:16;13.00;99.90
52543;DHT22;38449;52.696;6.186;2023-10-31T14:39:42;12.90;99.90
52543;DHT22;38449;52.696;6.186;2023-10-31T14:42:09;12.90;99.90
52543;DHT22;38449;52.696;6.186;2023-10-31T14:44:35;12.80;99.90
52543;DHT22;38449;52.696;6.186;2023-10-31T14:47:01;12.80;99.90
52543;DHT22;38449;52.696;6.186;2023-10-31T14:49:28;12.80;99.90
52543;DHT22;38449;52.696;6.186;2023-10-31T14:51:54;12.70;99.90
52543;DHT22;38449;52.696;6.186;2023-10-31T14:54:20;12.70;99.90
52543;DHT22;38449;52.696;6.186;2023-10-31T14:56:47;12.70;99.90
52543;DHT22;38449;52.696;6.186;2023-10-31T14:59:13;12.70;99.90
52543;DHT22;38449;52.696;6.186;2023-10-31T15:01:39;12.70;99.90
52543;DHT22;38449;52.696;6.186;2023-10-31T15:04:06;12.70;99.90
52543;DHT22;38449;52.696;6.186;2023-10-31T15:06:32;12.70;99.90
52543;DHT22;38449;52.696;6.186;2023-10-31T15:08:58;12.70;99.90
52543;DHT22;38449;52.696;6.186;2023-10-31T15:11:24;12.60;99.90
52543;DHT22;38449;52.696;6.186;2023-10-31T15:13:51;12.60;99.90
52543;DHT22;38449;52.696;6.186;2023-10-31T15:16:17;12.50;99.90
52543;DHT22;38449;52.696;6.186;2023-10-31T15:18:43;12.50;99.90
52543;DHT22;38449;52.696;6.186;2023-10-31T15:21:09;12.50;99.90
52543;DHT22;38449;52.696;6.186;2023-10-31T15:23:36;12.50;99.90
52543;DHT22;38449;52.696;6.186;2023-10-31T15:26:03;12.50;99.90
52543;DHT22;38449;52.696;6.186;2023-10-31T15:28:30;12.40;99.90
52543;DHT22;38449;52.696;6.186;2023-10-31T15:30:56;12.40;99.90
52543;DHT22;38449;52.696;6.186;2023-10-31T15:33:22;12.40;99.90